Dodworth, United Kingdom
Current Conditions -  °F | °C
As of 4:20 PM on Friday 21 Nov 2014 (Local Time) from EGCN Reporting Station
Light Rain Light Rain  
Wind Chill: 43°   Ceiling: 1600
Heat Index: 46°   Visibility: 4mi
Dew Point: 45°   Wind: 7mph
Humidity: 93%   Direction: 120°ESE
Pressure: 30.03"   Gusts: NA
Location:  53.54°N, 1.53°W
Report Text: EGCN 211620Z 12006KT 6000 -RA BKN016 OVC049 08/07 Q1017
Loading
Personal Weather Stations






























Interactive Weather Map New forecast layout! Learn more

10-Day Weather Forecast

Advertisements
Track Severe Weather on mobile